Terminal Aerodrome Forecast
Issued by NWS

Home | Current Version | Previous Version | Text Only | Print | Product List | Glossary On
Versions: 1 2 3 4 5 6 7 8 9 10 11 12 13
191
FTUS45 KRIW 300533
TAFBPI
TAF
KBPI 300533Z 3006/3106 VRB06KT P6SM VCSH SCT060 BKN080
     FM300900 VRB05KT P6SM BKN080
     FM301300 30006KT P6SM FEW080
     FM301900 30015G25KT P6SM FEW070
     FM310200 34008KT P6SM SKC=

USA.gov is the U.S. government's official web portal to all federal, state and local government web resources and services.